Time;durP1;ratioP1;P1;durP2;ratioP2;P2;SDS_P1;SDS_P2;PMS_P1;PMS_P2;Temp;Humidity;BMP_temperature;BMP_pressure;BME280_temperature;BME280_humidity;BME280_pressure;Samples;Min_cycle;Max_cycle;Signal;HPM_P1;HPM_P2
2022/09/15 00:01:34;;;;;;;2.47;1.48;;;;;;;17.80;71.93;63838.34;5004965;28;20543;-74
2022/09/15 00:04:01;;;;;;;1.48;1.42;;;;;;;17.78;72.02;63838.31;5004200;28;20211;-74
2022/09/15 00:06:28;;;;;;;1.98;1.55;;;;;;;17.73;72.63;63831.03;5004701;28;20222;-72
2022/09/15 00:08:55;;;;;;;1.73;1.63;;;;;;;17.58;72.44;63820.59;5004377;28;20203;-74
2022/09/15 00:11:23;;;;;;;2.30;1.70;;;;;;;17.55;73.00;63816.94;5004605;28;20222;-73
2022/09/15 00:13:51;;;;;;;1.50;1.40;;;;;;;17.50;72.84;63811.72;5004752;28;20199;-74
2022/09/15 00:16:19;;;;;;;2.72;1.73;;;;;;;17.64;71.22;63821.16;5004756;28;20223;-73
2022/09/15 00:18:48;;;;;;;2.45;1.60;;;;;;;17.75;71.22;63830.03;5004326;28;20202;-72
2022/09/15 00:21:16;;;;;;;2.80;1.95;;;;;;;17.66;71.28;63825.81;5004553;28;20218;-73
2022/09/15 00:23:44;;;;;;;2.97;2.30;;;;;;;17.60;72.08;63817.50;5003965;28;20198;-73
2022/09/15 00:26:13;;;;;;;1.77;1.67;;;;;;;17.51;72.14;63812.75;5004901;28;20225;-74
2022/09/15 00:28:41;;;;;;;3.00;1.85;;;;;;;17.56;72.53;63815.91;5003736;28;20194;-73
2022/09/15 00:31:10;;;;;;;2.17;1.70;;;;;;;17.64;71.53;63821.16;5016711;28;20236;-74
2022/09/15 00:33:37;;;;;;;2.50;2.30;;;;;;;17.65;71.27;63822.72;5023943;28;20240;-74
2022/09/15 00:36:08;;;;;;;4.68;2.08;;;;;;;17.65;72.10;63827.88;5023964;28;20224;-73
2022/09/15 00:38:36;;;;;;;2.28;2.17;;;;;;;17.64;72.47;63821.16;5023368;28;20217;-73
2022/09/15 00:41:04;;;;;;;3.00;2.25;;;;;;;17.64;73.88;63821.16;5023392;28;20233;-74
2022/09/15 00:43:44;;;;;;;1.98;1.83;;;;;;;17.48;74.87;63807.56;5023111;28;20234;-74
2022/09/15 00:46:11;;;;;;;3.20;2.20;;;;;;;17.43;75.18;63796.69;5024445;28;20402;-74
2022/09/15 00:48:41;;;;;;;2.35;1.70;;;;;;;17.34;75.51;63790.94;5023428;28;20423;-73
2022/09/15 00:51:14;;;;;;;2.35;1.90;;;;;;;17.31;75.82;63792.97;5025322;28;20217;-73
2022/09/15 00:53:41;;;;;;;3.00;1.70;;;;;;;17.34;76.65;63800.72;5022969;28;20202;-74
2022/09/15 00:56:10;;;;;;;2.00;1.90;;;;;;;17.21;77.86;63782.56;5023915;28;20264;-74
2022/09/15 00:58:42;;;;;;;3.22;1.60;;;;;;;17.14;77.73;63770.13;5023075;28;20232;-73
2022/09/15 01:01:10;;;;;;;5.75;2.20;;;;;;;17.08;78.39;63763.88;5023721;28;20222;-74
2022/09/15 01:03:37;;;;;;;4.18;2.60;;;;;;;17.05;78.89;63762.81;5023603;28;20292;-73
2022/09/15 01:06:12;;;;;;;1.90;1.80;;;;;;;17.01;78.56;63758.66;5023027;28;20596;-74
2022/09/15 01:08:44;;;;;;;3.70;2.60;;;;;;;16.99;78.93;63754.50;5022665;28;20189;-74
2022/09/15 01:11:11;;;;;;;2.13;2.03;;;;;;;16.90;80.11;63745.13;5022269;28;20553;-74
2022/09/15 01:13:38;;;;;;;2.83;2.60;;;;;;;16.88;79.83;63742.53;5023287;28;20202;-73
2022/09/15 01:16:13;;;;;;;2.40;2.30;;;;;;;16.84;80.69;63738.88;5022760;28;20222;-73
2022/09/15 01:18:47;;;;;;;2.33;2.10;;;;;;;16.77;81.23;63733.66;5023620;28;20210;-74
2022/09/15 01:21:33;;;;;;;3.40;2.58;;;;;;;16.81;79.84;63737.81;5023041;28;20284;-75
2022/09/15 01:24:44;;;;;;;3.70;2.30;;;;;;;16.69;82.17;63728.44;5023196;28;20194;-74
2022/09/15 01:27:34;;;;;;;2.75;2.35;;;;;;;16.63;82.60;63721.66;5022847;28;20198;-73
2022/09/15 01:30:12;;;;;;;2.63;2.42;;;;;;;16.43;84.74;63696.22;5023115;28;20264;-73
2022/09/15 01:33:05;;;;;;;6.90;2.80;;;;;;;16.43;84.66;63700.84;5023696;28;20202;-74
2022/09/15 01:35:41;;;;;;;5.22;2.45;;;;;;;16.37;85.13;63692.03;5022799;28;20225;-73
2022/09/15 01:38:13;;;;;;;4.97;2.70;;;;;;;16.45;84.14;63700.34;5022944;28;20507;-75
2022/09/15 01:40:47;;;;;;;4.10;2.22;;;;;;;16.52;82.46;63708.16;5026030;28;20300;-74
2022/09/15 01:43:16;;;;;;;5.50;2.70;;;;;;;16.47;82.77;63697.81;5026655;28;20276;-73
2022/09/15 01:45:48;;;;;;;3.80;2.80;;;;;;;16.49;83.52;63707.63;5027130;28;20217;-72
2022/09/15 01:48:19;;;;;;;7.38;2.50;;;;;;;16.49;83.24;63701.97;5026642;28;20227;-73
2022/09/15 01:50:50;;;;;;;5.03;2.13;;;;;;;16.51;82.54;63707.13;5026693;28;20225;-73
2022/09/15 01:53:20;;;;;;;2.67;2.03;;;;;;;16.50;83.27;63705.56;5026405;28;20202;-73
2022/09/15 01:55:52;;;;;;;4.53;2.63;;;;;;;16.51;84.20;63704.03;5026685;28;20255;-73
2022/09/15 01:58:19;;;;;;;3.05;2.50;;;;;;;16.42;83.08;63697.75;5026461;28;20197;-73
2022/09/15 02:00:51;;;;;;;2.88;2.67;;;;;;;16.56;84.04;63714.38;5025980;28;20218;-74
2022/09/15 02:03:22;;;;;;;5.03;2.67;;;;;;;16.44;83.64;63697.25;5027249;28;20229;-73
2022/09/15 02:05:52;;;;;;;4.63;2.10;;;;;;;16.48;82.01;63704.00;5026056;28;20225;-74
2022/09/15 02:08:27;;;;;;;2.80;2.60;;;;;;;16.51;82.36;63702.00;5027055;28;20423;-72
2022/09/15 02:11:03;;;;;;;4.57;2.55;;;;;;;16.51;82.16;63701.47;5026351;28;20221;-74
2022/09/15 02:13:39;;;;;;;4.05;2.17;;;;;;;16.54;81.63;63712.81;5026270;28;20206;-73
2022/09/15 02:16:18;;;;;;;2.22;1.98;;;;;;;16.60;80.88;63711.34;5026880;28;20222;-73
2022/09/15 02:18:54;;;;;;;2.65;2.00;;;;;;;16.53;82.32;63711.25;5026427;28;20206;-74
2022/09/15 02:21:28;;;;;;;2.83;1.92;;;;;;;16.57;81.70;63715.41;5026680;28;20236;-73
2022/09/15 02:24:02;;;;;;;3.08;2.30;;;;;;;16.57;80.73;63715.94;5026139;28;20525;-73
2022/09/15 02:26:32;;;;;;;2.38;2.28;;;;;;;16.54;81.86;63709.72;5026222;28;20222;-73
2022/09/15 02:29:02;;;;;;;3.30;2.13;;;;;;;16.60;81.22;63719.06;5025861;28;20494;-74
2022/09/15 02:31:33;;;;;;;2.45;2.35;;;;;;;16.55;81.34;63708.22;5013666;28;20226;-72
2022/09/15 02:34:03;;;;;;;4.90;2.30;;;;;;;16.54;80.74;63712.28;5005552;28;20198;-73
2022/09/15 02:36:31;;;;;;;3.25;2.38;;;;;;;16.49;80.92;63710.19;5006409;28;20219;-74
2022/09/15 02:39:01;;;;;;;4.68;2.20;;;;;;;16.51;80.92;63704.03;5005753;28;20199;-72
2022/09/15 02:41:28;;;;;;;2.67;2.10;;;;;;;16.49;79.84;63699.91;5006318;28;20277;-74
2022/09/15 02:43:55;;;;;;;3.53;2.58;;;;;;;16.55;79.30;63706.13;5005387;28;20237;-73
2022/09/15 02:46:23;;;;;;;4.82;2.10;;;;;;;16.61;79.77;63714.44;5006074;28;20226;-73
2022/09/15 02:48:52;;;;;;;4.28;2.05;;;;;;;16.58;79.17;63713.91;5006367;28;20198;-73
2022/09/15 02:51:19;;;;;;;2.22;1.85;;;;;;;16.65;77.63;63718.59;5005576;28;20237;-73
2022/09/15 02:53:46;;;;;;;2.40;2.20;;;;;;;16.71;77.19;63720.22;5005503;28;20214;-73
2022/09/15 02:56:15;;;;;;;3.30;3.10;;;;;;;16.72;77.78;63728.97;5005718;28;20227;-72
2022/09/15 02:58:42;;;;;;;3.40;2.00;;;;;;;16.73;77.29;63729.50;5005421;28;20218;-72
2022/09/15 03:01:14;;;;;;;5.60;2.22;;;;;;;16.71;77.52;63727.41;5005602;28;20419;-73
2022/09/15 03:03:42;;;;;;;2.45;2.25;;;;;;;16.75;78.33;63732.09;5005838;28;20399;-73
2022/09/15 03:06:17;;;;;;;2.47;2.08;;;;;;;16.74;77.15;63731.06;5006143;28;20427;-73
2022/09/15 03:08:47;;;;;;;2.90;2.05;;;;;;;16.69;78.42;63727.91;5005597;28;20546;-72
2022/09/15 03:11:14;;;;;;;3.05;1.65;;;;;;;16.64;79.78;63715.50;5005732;28;20230;-73
2022/09/15 03:13:41;;;;;;;3.53;2.40;;;;;;;16.59;80.69;63710.31;5005171;28;20198;-73
2022/09/15 03:16:09;;;;;;;4.93;2.20;;;;;;;16.56;80.05;63714.38;5005702;28;20242;-73
2022/09/15 03:18:36;;;;;;;5.22;2.60;;;;;;;16.53;80.64;63706.63;5005378;28;20269;-73
2022/09/15 03:21:04;;;;;;;2.50;2.20;;;;;;;16.53;79.85;63703.56;5005312;28;20233;-73
2022/09/15 03:23:33;;;;;;;2.30;2.10;;;;;;;16.46;80.39;63701.94;5004890;28;20230;-72
2022/09/15 03:26:00;;;;;;;2.53;2.33;;;;;;;16.42;80.39;63700.31;5005866;28;20222;-74
2022/09/15 03:28:27;;;;;;;2.58;2.40;;;;;;;16.41;80.30;63696.69;5005459;28;20194;-74
2022/09/15 03:30:55;;;;;;;5.18;2.97;;;;;;;16.33;80.96;63685.28;5016036;28;20230;-72
2022/09/15 03:33:23;;;;;;;2.08;1.98;;;;;;;16.22;81.90;63676.94;5024813;28;20198;-73
2022/09/15 03:35:51;;;;;;;2.58;2.35;;;;;;;16.21;82.37;63675.91;5024325;28;20272;-74
2022/09/15 03:38:18;;;;;;;3.35;2.20;;;;;;;16.17;82.88;63671.72;5024378;28;20209;-73
2022/09/15 03:40:56;;;;;;;3.67;2.90;;;;;;;16.15;82.51;63667.59;5024608;28;20272;-74
2022/09/15 03:43:23;;;;;;;2.40;2.30;;;;;;;16.10;83.33;63659.84;5024581;28;20296;-73
2022/09/15 03:45:50;;;;;;;3.05;2.38;;;;;;;16.09;84.07;63663.41;5024593;28;20218;-74
2022/09/15 03:48:17;;;;;;;2.78;2.58;;;;;;;16.01;85.24;63657.69;5024446;28;20227;-73
2022/09/15 03:50:44;;;;;;;2.58;2.38;;;;;;;16.01;86.60;63655.09;5025038;28;20226;-73
2022/09/15 03:53:11;;;;;;;7.13;3.20;;;;;;;15.93;86.26;63649.88;5024130;28;20208;-73
2022/09/15 03:55:38;;;;;;;2.90;2.70;;;;;;;15.86;85.78;63642.59;5024955;28;20225;-74
2022/09/15 03:58:06;;;;;;;3.28;2.97;;;;;;;15.82;85.28;63630.75;5024323;28;20411;-73
2022/09/15 04:00:34;;;;;;;5.78;3.95;;;;;;;15.83;85.02;63642.03;5024961;28;20399;-73
2022/09/15 04:03:00;;;;;;;5.57;3.33;;;;;;;15.79;85.60;63632.22;5024049;28;20253;-73
2022/09/15 04:05:27;;;;;;;4.35;3.22;;;;;;;15.78;85.86;63628.63;5024559;28;20411;-73
2022/09/15 04:07:54;;;;;;;5.78;2.50;;;;;;;15.76;85.76;63629.63;5026249;28;20209;-73
2022/09/15 04:10:23;;;;;;;8.20;2.78;;;;;;;15.75;85.33;63633.72;5024120;28;20218;-73
2022/09/15 04:12:50;;;;;;;3.25;2.55;;;;;;;15.74;86.43;63624.97;5024620;28;20378;-74
2022/09/15 04:15:18;;;;;;;2.88;2.67;;;;;;;15.70;87.44;63625.44;5024011;28;20534;-72
2022/09/15 04:17:45;;;;;;;6.40;3.60;;;;;;;15.74;87.14;63627.53;5024955;28;20225;-73
2022/09/15 04:20:12;;;;;;;5.70;3.15;;;;;;;15.76;86.31;63623.97;5024860;28;20253;-71
2022/09/15 04:22:39;;;;;;;3.83;3.38;;;;;;;15.85;86.19;63638.47;5023465;28;20194;-73
2022/09/15 04:25:08;;;;;;;2.97;2.78;;;;;;;15.87;85.99;63641.06;5024437;28;20527;-73
2022/09/15 04:27:36;;;;;;;3.10;2.90;;;;;;;15.86;86.38;63636.91;5023710;28;20236;-76
2022/09/15 04:30:04;;;;;;;3.42;2.78;;;;;;;15.87;86.71;63638.50;5021950;28;20221;-75
2022/09/15 04:32:34;;;;;;;4.20;2.60;;;;;;;15.96;86.75;63650.41;5004162;28;20208;-74
2022/09/15 04:35:01;;;;;;;2.67;2.58;;;;;;;15.97;86.91;63654.03;5007184;28;20219;-73
2022/09/15 04:37:28;;;;;;;3.28;3.00;;;;;;;16.09;86.34;63660.84;5004649;28;20262;-73
2022/09/15 04:39:55;;;;;;;3.17;2.83;;;;;;;16.10;85.86;63664.97;5004486;28;20203;-74
2022/09/15 04:42:22;;;;;;;2.53;2.33;;;;;;;16.16;85.25;63671.22;5004015;28;20215;-75
2022/09/15 04:44:49;;;;;;;3.20;2.75;;;;;;;16.33;84.54;63688.38;5004124;28;20238;-74
2022/09/15 04:47:16;;;;;;;4.85;2.60;;;;;;;16.39;84.93;63691.53;5003499;28;20402;-74
2022/09/15 04:49:44;;;;;;;3.03;2.38;;;;;;;16.49;83.44;63707.63;5004135;28;20414;-75
2022/09/15 04:52:11;;;;;;;7.22;3.28;;;;;;;16.60;82.71;63713.91;5003648;28;20205;-72
2022/09/15 04:54:38;;;;;;;3.58;3.00;;;;;;;16.75;82.21;63726.44;5004509;28;20198;-73
2022/09/15 04:57:05;;;;;;;3.40;3.08;;;;;;;16.83;81.30;63737.31;5004203;28;20472;-73
2022/09/15 04:59:32;;;;;;;2.65;2.45;;;;;;;16.95;80.62;63747.25;5003591;28;20205;-74
2022/09/15 05:01:59;;;;;;;5.63;3.22;;;;;;;17.05;79.06;63760.25;5003800;28;20218;-74
2022/09/15 05:04:26;;;;;;;3.25;2.92;;;;;;;17.15;78.41;63773.72;5003481;28;20241;-74
2022/09/15 05:06:54;;;;;;;8.73;2.92;;;;;;;17.27;76.98;63781.06;5003305;28;20223;-74
2022/09/15 05:09:21;;;;;;;5.15;3.15;;;;;;;17.40;75.75;63799.22;5004992;28;20390;-73
2022/09/15 05:11:48;;;;;;;6.45;4.00;;;;;;;17.51;75.36;63805.03;5003227;28;20647;-74
2022/09/15 05:14:15;;;;;;;5.28;3.15;;;;;;;17.65;73.21;63822.72;5011793;28;20410;-74
2022/09/15 05:16:42;;;;;;;4.07;2.90;;;;;;;17.69;73.24;63826.38;5027224;28;20245;-73
2022/09/15 05:19:10;;;;;;;4.50;3.38;;;;;;;17.86;72.11;63846.66;5027019;28;20238;-73
2022/09/15 05:21:37;;;;;;;3.22;3.03;;;;;;;17.95;71.81;63856.00;5027599;28;20221;-75
2022/09/15 05:24:06;;;;;;;8.55;2.95;;;;;;;18.02;72.82;63863.81;5026806;28;20379;-74
2022/09/15 05:26:32;;;;;;;3.00;2.70;;;;;;;18.13;72.35;63877.34;5027981;28;20218;-74
2022/09/15 05:28:59;;;;;;;5.70;3.40;;;;;;;18.27;72.08;63886.78;5026761;28;20206;-75
2022/09/15 05:31:29;;;;;;;4.00;3.28;;;;;;;18.34;69.92;63894.06;5028943;28;20476;-76
2022/09/15 05:33:56;;;;;;;5.65;2.75;;;;;;;18.46;69.20;63906.06;5026122;28;20194;-73
2022/09/15 05:36:24;;;;;;;6.45;2.92;;;;;;;18.46;70.61;63908.66;5027175;28;20245;-73
2022/09/15 05:38:52;;;;;;;3.17;2.88;;;;;;;18.63;69.40;63929.47;5026562;28;20229;-73
2022/09/15 05:41:20;;;;;;;10.40;3.10;;;;;;;18.77;68.24;63938.91;5026862;28;20233;-75
2022/09/15 05:43:49;;;;;;;3.55;2.88;;;;;;;18.88;68.33;63950.34;5026147;28;20253;-74
2022/09/15 05:46:17;;;;;;;3.80;2.88;;;;;;;19.01;66.13;63968.56;5027533;28;20228;-76
2022/09/15 05:48:45;;;;;;;6.80;2.65;;;;;;;19.08;66.61;63973.81;5027726;28;20190;-74
2022/09/15 05:51:13;;;;;;;6.97;2.60;;;;;;;19.24;65.24;63989.97;5026988;28;20241;-76
2022/09/15 05:53:40;;;;;;;4.45;2.85;;;;;;;19.37;64.65;64006.66;5025208;28;20391;-75
2022/09/15 05:56:10;;;;;;;5.25;2.92;;;;;;;19.48;65.11;64017.59;5026652;28;20264;-74
2022/09/15 05:58:40;;;;;;;4.25;2.63;;;;;;;19.66;64.35;64033.78;5026683;28;20498;-74
2022/09/15 06:01:08;;;;;;;2.85;2.55;;;;;;;19.69;64.54;64033.81;5027108;28;20214;-73
2022/09/15 06:03:36;;;;;;;5.57;2.50;;;;;;;19.73;63.37;64035.38;5026117;28;20234;-73
2022/09/15 06:06:05;;;;;;;3.58;2.50;;;;;;;19.85;62.65;64056.19;5026286;28;20220;-75
2022/09/15 06:08:33;;;;;;;4.63;2.75;;;;;;;19.92;60.70;64060.38;5026291;28;20204;-76
2022/09/15 06:11:05;;;;;;;4.82;3.03;;;;;;;20.05;61.69;64074.47;5026343;28;20218;-74
2022/09/15 06:13:32;;;;;;;6.53;2.80;;;;;;;20.17;60.15;64091.66;5026561;28;20240;-74
2022/09/15 06:16:06;;;;;;;5.00;3.10;;;;;;;20.16;59.88;64085.44;5027772;28;20218;-75
2022/09/15 06:18:34;;;;;;;6.80;2.90;;;;;;;20.15;60.32;64084.91;5026313;28;20212;-75
2022/09/15 06:21:07;;;;;;;4.15;2.85;;;;;;;20.15;60.39;64087.50;5025627;28;20610;-74
2022/09/15 06:23:35;;;;;;;3.67;2.55;;;;;;;20.25;62.12;64094.84;5025318;28;20234;-74
2022/09/15 06:26:07;;;;;;;3.90;2.97;;;;;;;20.33;61.98;64103.16;5025613;28;20218;-75
2022/09/15 06:28:34;;;;;;;2.65;2.50;;;;;;;20.39;58.39;64107.38;5026612;28;20199;-73
2022/09/15 06:31:01;;;;;;;4.32;2.67;;;;;;;20.58;56.91;64124.09;5022213;28;20257;-75
2022/09/15 06:33:29;;;;;;;3.30;3.08;;;;;;;20.70;56.57;64141.81;5026775;28;20194;-73
2022/09/15 06:35:56;;;;;;;2.95;2.65;;;;;;;20.86;56.41;64155.41;5025788;28;20225;-74
2022/09/15 06:38:23;;;;;;;5.55;2.70;;;;;;;20.94;56.35;64163.75;5026124;28;20204;-73
2022/09/15 06:40:57;;;;;;;6.72;2.50;;;;;;;21.02;56.41;64170.06;5025503;28;20287;-74
2022/09/15 06:43:24;;;;;;;4.22;2.53;;;;;;;20.96;56.80;64165.84;5025606;28;20202;-74
2022/09/15 06:45:51;;;;;;;3.70;2.75;;;;;;;21.24;56.04;64197.69;5025817;28;20257;-74
2022/09/15 06:48:18;;;;;;;4.15;3.05;;;;;;;21.38;55.69;64214.91;5025823;28;20194;-74
2022/09/15 06:50:53;;;;;;;2.95;2.75;;;;;;;21.39;54.72;64213.34;5025036;28;20225;-75
2022/09/15 06:53:20;;;;;;;3.20;2.67;;;;;;;21.54;55.02;64231.59;5026469;28;20269;-74
2022/09/15 06:55:47;;;;;;;3.75;2.63;;;;;;;21.56;53.86;64229.03;5026011;28;20424;-75
2022/09/15 06:58:14;;;;;;;5.05;2.97;;;;;;;21.65;52.98;64240.50;5026274;28;20256;-74
2022/09/15 07:00:41;;;;;;;3.65;2.53;;;;;;;21.77;53.15;64253.06;5025339;28;20225;-74
2022/09/15 07:03:08;;;;;;;3.38;2.78;;;;;;;21.87;53.09;64257.81;5025423;28;20269;-74
2022/09/15 07:05:35;;;;;;;2.75;2.55;;;;;;;21.74;52.75;64247.84;5024796;28;20276;-74
2022/09/15 07:08:03;;;;;;;6.10;2.60;;;;;;;21.55;51.12;64232.66;5025829;28;20198;-74
2022/09/15 07:10:30;;;;;;;4.43;2.30;;;;;;;21.60;51.56;64238.41;5025056;28;20218;-74
2022/09/15 07:13:00;;;;;;;2.72;2.50;;;;;;;21.61;51.73;64241.50;5025657;28;20202;-74
2022/09/15 07:15:26;;;;;;;4.93;2.47;;;;;;;21.60;51.99;64238.41;5025596;28;20241;-75
2022/09/15 07:17:53;;;;;;;5.60;2.72;;;;;;;21.58;51.48;64236.31;5025019;28;20213;-74
2022/09/15 07:20:20;;;;;;;6.22;2.97;;;;;;;21.50;51.26;64219.66;5027355;28;20222;-74
2022/09/15 07:22:47;;;;;;;4.07;2.90;;;;;;;21.66;51.18;64244.16;5025134;28;20202;-75
2022/09/15 07:25:15;;;;;;;6.30;2.63;;;;;;;21.82;51.63;64258.28;5024773;28;20588;-75
2022/09/15 07:27:42;;;;;;;7.00;3.20;;;;;;;21.97;52.38;64276.56;5025236;28;20252;-76
2022/09/15 07:30:10;;;;;;;6.32;3.30;;;;;;;21.94;53.93;64270.31;5024920;28;20220;-73
2022/09/15 07:32:37;;;;;;;12.00;3.45;;;;;;;21.98;52.44;64271.91;5025065;28;20198;-72
2022/09/15 07:35:05;;;;;;;2.72;2.50;;;;;;;21.92;51.52;64266.16;5025911;28;20228;-75
2022/09/15 07:37:32;;;;;;;3.17;2.83;;;;;;;21.89;52.88;64263.00;5024122;28;20198;-74
2022/09/15 07:39:59;;;;;;;8.48;2.97;;;;;;;22.06;52.28;64291.16;5024814;28;20226;-75
2022/09/15 07:42:27;;;;;;;6.75;3.30;;;;;;;22.24;52.76;64304.78;5024580;28;20206;-74
2022/09/15 07:44:54;;;;;;;4.90;3.00;;;;;;;22.33;51.06;64311.59;5024972;28;20229;-75
2022/09/15 07:47:21;;;;;;;6.55;3.00;;;;;;;22.57;50.26;64338.78;5024601;28;20198;-74
2022/09/15 07:49:49;;;;;;;4.97;3.13;;;;;;;22.71;50.00;64350.81;5025762;28;20220;-75
2022/09/15 07:52:16;;;;;;;3.10;2.90;;;;;;;22.87;50.34;64372.75;5024197;28;20237;-75
2022/09/15 07:54:42;;;;;;;6.32;3.20;;;;;;;23.01;49.67;64384.78;5024660;28;20205;-75
2022/09/15 07:57:09;;;;;;;3.25;2.95;;;;;;;23.05;50.36;64385.84;5025081;28;20545;-75
2022/09/15 07:59:38;;;;;;;4.25;2.92;;;;;;;23.05;50.50;64388.44;5024815;28;20205;-75
2022/09/15 08:02:05;;;;;;;7.53;3.15;;;;;;;23.28;49.89;64415.13;5024874;28;20206;-75
2022/09/15 08:04:31;;;;;;;6.00;3.13;;;;;;;23.56;49.67;64439.75;5023847;28;20240;-75
2022/09/15 08:06:58;;;;;;;5.25;2.60;;;;;;;23.82;48.79;64463.81;5024246;28;20269;-75
2022/09/15 08:09:25;;;;;;;4.15;3.10;;;;;;;23.88;48.38;64472.72;5024852;28;20198;-74
2022/09/15 08:11:52;;;;;;;8.45;3.15;;;;;;;23.85;47.49;64469.56;5023978;28;20221;-75
2022/09/15 08:14:18;;;;;;;7.05;2.88;;;;;;;23.87;48.96;64471.66;5024113;28;20198;-74
2022/09/15 08:16:47;;;;;;;3.47;2.90;;;;;;;23.77;48.94;64463.78;5024043;28;20252;-75
2022/09/15 08:19:14;;;;;;;5.90;3.33;;;;;;;23.95;48.50;64482.63;5024082;28;20278;-75
2022/09/15 08:21:41;;;;;;;5.35;3.25;;;;;;;24.11;47.11;64499.38;5024649;28;20226;-76
2022/09/15 08:24:09;;;;;;;7.53;3.20;;;;;;;24.24;47.53;64512.47;5024836;28;20317;-74
2022/09/15 08:26:37;;;;;;;11.15;3.72;;;;;;;24.46;48.34;64536.03;5024152;28;20415;-77
2022/09/15 08:29:04;;;;;;;6.38;3.05;;;;;;;24.67;47.84;64549.69;5024479;28;20198;-75
2022/09/15 08:31:31;;;;;;;3.45;3.10;;;;;;;24.47;46.29;64534.47;5008210;28;20225;-75
2022/09/15 08:34:02;;;;;;;3.72;3.40;;;;;;;24.65;46.55;64555.94;5005188;28;20222;-75
2022/09/15 08:36:30;;;;;;;3.83;3.53;;;;;;;24.84;46.58;64570.13;5004188;28;20410;-75
2022/09/15 08:38:57;;;;;;;8.55;4.07;;;;;;;24.94;45.88;64586.31;5004842;28;20488;-76
2022/09/15 08:41:29;;;;;;;5.30;4.15;;;;;;;24.98;46.55;64593.13;5003995;28;20260;-75
2022/09/15 08:44:00;;;;;;;6.53;2.70;;;;;;;25.13;45.91;64601.00;5004231;28;20201;-75
2022/09/15 08:46:32;;;;;;;6.55;3.05;;;;;;;24.92;45.59;64586.84;5004123;28;20278;-76
2022/09/15 08:49:08;;;;;;;10.80;3.17;;;;;;;25.09;45.46;64598.91;5005660;28;20365;-75
2022/09/15 08:51:42;;;;;;;11.88;3.60;;;;;;;25.26;45.03;64619.34;5004357;28;20252;-74
2022/09/15 08:54:16;;;;;;;5.78;3.00;;;;;;;25.29;44.47;64622.47;5004942;28;20199;-74
2022/09/15 08:56:44;;;;;;;7.07;3.88;;;;;;;25.18;43.94;64607.81;5004352;28;20218;-74
2022/09/15 08:59:14;;;;;;;3.50;3.05;;;;;;;25.32;44.49;64619.84;5003985;28;20237;-76
2022/09/15 09:01:57;;;;;;;5.47;3.00;;;;;;;25.56;45.25;64650.25;5004461;28;20238;-74
2022/09/15 09:04:43;;;;;;;6.47;3.70;;;;;;;25.36;42.78;64627.22;5004217;28;20415;-76
2022/09/15 09:07:25;;;;;;;6.50;3.00;;;;;;;25.44;43.69;64632.97;5003807;28;20554;-75
2022/09/15 09:09:58;;;;;;;6.03;2.97;;;;;;;25.69;43.80;64663.88;5003622;28;20307;-75
2022/09/15 09:12:46;;;;;;;4.43;3.10;;;;;;;25.89;43.13;64682.75;5004840;28;20496;-75
2022/09/15 09:15:26;;;;;;;5.57;2.30;;;;;;;26.16;43.14;64707.94;5004485;28;20218;-75
2022/09/15 09:18:13;;;;;;;6.10;2.60;;;;;;;26.19;42.43;64711.63;5004866;28;20202;-75
2022/09/15 09:20:49;;;;;;;6.78;3.08;;;;;;;26.07;41.90;64706.88;5003939;28;20240;-74
2022/09/15 09:23:20;;;;;;;5.28;3.13;;;;;;;26.33;41.28;64733.06;5004002;28;20206;-75
2022/09/15 09:25:48;;;;;;;4.88;3.15;;;;;;;26.35;41.75;64729.94;5003978;28;20247;-73
2022/09/15 09:28:27;;;;;;;4.03;3.00;;;;;;;26.36;41.13;64728.91;5004912;28;20204;-76
2022/09/15 09:30:57;;;;;;;10.90;3.53;;;;;;;26.23;40.89;64719.97;5015251;28;20436;-75
2022/09/15 09:33:29;;;;;;;10.60;3.58;;;;;;;26.48;42.12;64748.78;5023836;28;20320;-74
2022/09/15 09:36:01;;;;;;;3.30;3.10;;;;;;;26.72;41.69;64771.91;5024362;28;20226;-74
2022/09/15 09:38:32;;;;;;;5.20;2.88;;;;;;;26.91;39.52;64796.53;5023607;28;20206;-73
2022/09/15 09:40:59;;;;;;;7.43;3.53;;;;;;;26.87;39.61;64787.13;5023258;28;20452;-75
2022/09/15 09:43:27;;;;;;;16.25;3.88;;;;;;;27.03;39.86;64804.41;5023002;28;20206;-75
2022/09/15 09:45:54;;;;;;;11.80;4.05;;;;;;;27.15;40.35;64814.38;5022781;28;20257;-74
2022/09/15 09:48:23;;;;;;;7.95;3.72;;;;;;;26.85;41.13;64782.91;5023135;28;20197;-74
2022/09/15 09:50:51;;;;;;;8.88;3.65;;;;;;;27.03;41.19;64804.41;5022843;28;20221;-75
2022/09/15 09:53:26;;;;;;;7.43;3.70;;;;;;;27.31;42.13;64835.91;5023157;28;20201;-74
2022/09/15 09:55:54;;;;;;;5.53;3.63;;;;;;;27.37;39.61;64839.06;5023264;28;20244;-75
2022/09/15 09:58:24;;;;;;;5.65;3.42;;;;;;;27.24;39.93;64826.44;5022721;28;20198;-75
2022/09/15 10:00:52;;;;;;;4.85;3.22;;;;;;;27.21;40.27;64825.41;5024477;28;20268;-73
2022/09/15 10:03:21;;;;;;;3.85;2.85;;;;;;;27.14;39.26;64815.44;5026487;28;20194;-75
2022/09/15 10:06:02;;;;;;;4.20;3.35;;;;;;;27.08;40.15;64806.50;5026294;28;20237;-76
2022/09/15 10:08:30;;;;;;;6.43;3.35;;;;;;;27.30;39.90;64827.53;5026276;28;20243;-75
2022/09/15 10:11:02;;;;;;;4.25;3.30;;;;;;;27.49;40.06;64849.03;5026092;28;20404;-76
2022/09/15 10:13:29;;;;;;;2.88;2.67;;;;;;;27.66;37.97;64872.63;5026629;28;20361;-75
2022/09/15 10:16:00;;;;;;;5.45;3.55;;;;;;;27.81;37.48;64883.16;5025905;28;20268;-75
2022/09/15 10:18:30;;;;;;;7.25;3.38;;;;;;;27.89;38.88;64888.91;5026862;28;20202;-75
2022/09/15 10:20:58;;;;;;;5.63;2.47;;;;;;;28.01;38.69;64906.25;5025910;28;20224;-76
2022/09/15 10:23:27;;;;;;;5.43;2.85;;;;;;;27.88;38.32;64887.88;5026073;28;20475;-75
2022/09/15 10:25:58;;;;;;;6.15;3.45;;;;;;;27.76;38.34;64877.38;5025866;28;20230;-75
2022/09/15 10:28:26;;;;;;;7.60;2.97;;;;;;;27.65;38.41;64863.72;5025692;28;20197;-74
2022/09/15 10:31:02;;;;;;;5.97;3.25;;;;;;;27.89;37.82;64891.00;5024530;28;20284;-74
2022/09/15 10:33:31;;;;;;;6.95;3.60;;;;;;;28.21;37.72;64927.25;5026761;28;20366;-75
2022/09/15 10:36:03;;;;;;;7.05;3.17;;;;;;;28.46;37.46;64952.97;5025417;28;20218;-75
2022/09/15 10:38:39;;;;;;;7.35;3.38;;;;;;;28.87;37.13;64998.69;5025599;28;20494;-76
2022/09/15 10:41:17;;;;;;;6.38;3.28;;;;;;;28.87;36.63;64991.31;5024803;28;20559;-75
2022/09/15 10:44:06;;;;;;;3.88;2.72;;;;;;;28.57;37.13;64961.91;5026382;28;20221;-75
2022/09/15 10:46:42;;;;;;;5.38;3.30;;;;;;;28.57;37.13;64967.16;5024961;28;20241;-75
2022/09/15 10:49:23;;;;;;;7.72;3.40;;;;;;;28.92;36.09;64996.59;5025611;28;20252;-76
2022/09/15 10:52:00;;;;;;;12.38;3.38;;;;;;;29.57;35.33;65067.00;5025664;28;20229;-75
2022/09/15 10:54:55;;;;;;;8.02;3.22;;;;;;;30.24;34.42;65137.44;5025941;28;20384;-76
2022/09/15 10:57:45;;;;;;;7.03;3.17;;;;;;;30.33;32.96;65146.91;5025742;28;20260;-75
2022/09/15 11:00:17;;;;;;;6.07;2.70;;;;;;;30.72;32.94;65184.75;5026234;28;20289;-75
2022/09/15 11:03:11;;;;;;;8.73;3.90;;;;;;;30.33;34.00;65143.75;5025733;28;20198;-74
2022/09/15 11:05:54;;;;;;;9.13;3.72;;;;;;;30.65;33.45;65182.66;4991185;28;20234;-75
2022/09/15 11:08:42;;;;;;;6.07;2.95;;;;;;;31.16;33.02;65235.81;5025294;28;20217;-76
2022/09/15 11:11:18;;;;;;;8.30;3.72;;;;;;;31.72;33.45;65294.75;5027459;28;20269;-74
2022/09/15 11:14:03;;;;;;;9.93;3.20;;;;;;;31.90;33.14;65311.09;5025826;28;20197;-75
2022/09/15 11:16:43;;;;;;;7.30;3.50;;;;;;;32.06;32.93;65327.94;5026228;28;20213;-75
2022/09/15 11:19:35;;;;;;;7.95;3.00;;;;;;;31.49;32.52;65268.47;5025148;28;20221;-74
2022/09/15 11:22:07;;;;;;;7.88;3.65;;;;;;;31.30;31.39;65247.91;5025086;28;20218;-74
2022/09/15 11:24:43;;;;;;;4.60;3.10;;;;;;;31.48;31.11;65266.84;5025055;28;20187;-76
2022/09/15 11:27:17;;;;;;;3.60;3.00;;;;;;;31.37;32.81;65260.56;5024993;28;20204;-76
2022/09/15 11:30:01;;;;;;;7.90;3.70;;;;;;;31.45;33.64;65266.88;5023799;28;20510;-74
2022/09/15 11:32:34;;;;;;;3.55;3.10;;;;;;;31.46;33.94;65270.03;5005190;28;20269;-75
2022/09/15 11:35:16;;;;;;;15.90;4.18;;;;;;;31.24;35.50;65239.50;5005485;28;20222;-76
2022/09/15 11:37:49;;;;;;;8.52;3.25;;;;;;;31.12;35.47;65231.59;5005552;28;20258;-75
2022/09/15 11:40:21;;;;;;;8.32;4.07;;;;;;;31.16;33.73;65233.72;5005977;28;20222;-74
2022/09/15 11:42:53;;;;;;;7.63;3.03;;;;;;;31.14;33.83;65233.69;5004838;28;20199;-75
2022/09/15 11:45:27;;;;;;;6.10;3.13;;;;;;;31.29;32.71;65247.38;5005305;28;20253;-75
2022/09/15 11:47:59;;;;;;;7.82;3.33;;;;;;;31.24;31.39;65244.75;5006277;28;20205;-74
2022/09/15 11:50:30;;;;;;;9.30;2.80;;;;;;;31.02;31.10;65221.63;5005601;28;20290;-74